sensor_id;sensor_type;location;lat;lon;timestamp;pressure;altitude;pressure_sealevel;temperature;humidity
61136;BME280;47021;51.340;12.432;2022-07-23T00:02:20;100276.66;;;22.22;58.17
61136;BME280;47021;51.340;12.432;2022-07-23T00:04:59;100267.63;;;22.17;58.28
61136;BME280;47021;51.340;12.432;2022-07-23T00:07:25;100265.28;;;22.01;58.71
61136;BME280;47021;51.340;12.432;2022-07-23T00:09:50;100272.06;;;22.03;59.03
61136;BME280;47021;51.340;12.432;2022-07-23T00:12:22;100268.56;;;22.03;58.65
61136;BME280;47021;51.340;12.432;2022-07-23T00:14:47;100268.03;;;22.14;58.81
61136;BME280;47021;51.340;12.432;2022-07-23T00:17:13;100258.66;;;22.24;57.79
61136;BME280;47021;51.340;12.432;2022-07-23T00:19:40;100260.25;;;22.19;58.49
61136;BME280;47021;51.340;12.432;2022-07-23T00:22:17;100264.28;;;22.02;58.53
61136;BME280;47021;51.340;12.432;2022-07-23T00:24:50;100252.72;;;21.47;60.18
61136;BME280;47021;51.340;12.432;2022-07-23T00:27:15;100245.75;;;21.80;59.27
61136;BME280;47021;51.340;12.432;2022-07-23T00:29:40;100255.84;;;21.92;58.96
61136;BME280;47021;51.340;12.432;2022-07-23T00:32:06;100241.44;;;21.79;59.48
61136;BME280;47021;51.340;12.432;2022-07-23T00:34:32;100237.50;;;21.69;59.68
61136;BME280;47021;51.340;12.432;2022-07-23T00:36:58;100242.75;;;21.90;58.99
61136;BME280;47021;51.340;12.432;2022-07-23T00:39:24;100236.00;;;21.88;59.20
61136;BME280;47021;51.340;12.432;2022-07-23T00:41:50;100243.19;;;21.66;59.73
61136;BME280;47021;51.340;12.432;2022-07-23T00:44:21;100235.69;;;21.76;59.43
61136;BME280;47021;51.340;12.432;2022-07-23T00:46:52;100229.38;;;21.77;59.36
61136;BME280;47021;51.340;12.432;2022-07-23T00:49:23;100223.00;;;21.71;59.39
61136;BME280;47021;51.340;12.432;2022-07-23T00:51:56;100226.88;;;21.75;59.48
61136;BME280;47021;51.340;12.432;2022-07-23T00:54:31;100210.56;;;21.78;59.48
61136;BME280;47021;51.340;12.432;2022-07-23T00:56:56;100209.31;;;21.74;59.81
61136;BME280;47021;51.340;12.432;2022-07-23T00:59:27;100207.34;;;21.90;58.95
61136;BME280;47021;51.340;12.432;2022-07-23T01:01:54;100212.69;;;21.96;58.92
61136;BME280;47021;51.340;12.432;2022-07-23T01:04:19;100207.97;;;21.92;59.14
61136;BME280;47021;51.340;12.432;2022-07-23T01:06:52;100216.47;;;21.74;59.56
61136;BME280;47021;51.340;12.432;2022-07-23T01:09:21;100223.19;;;22.11;58.53
61136;BME280;47021;51.340;12.432;2022-07-23T01:11:50;100210.75;;;21.77;59.46
61136;BME280;47021;51.340;12.432;2022-07-23T01:14:18;100199.59;;;21.88;59.04
61136;BME280;47021;51.340;12.432;2022-07-23T01:16:49;100206.88;;;21.45;60.47
61136;BME280;47021;51.340;12.432;2022-07-23T01:19:16;100196.03;;;21.74;59.39
61136;BME280;47021;51.340;12.432;2022-07-23T01:21:48;100192.06;;;21.64;59.87
61136;BME280;47021;51.340;12.432;2022-07-23T01:24:14;100191.06;;;21.65;60.03
61136;BME280;47021;51.340;12.432;2022-07-23T01:26:44;100193.22;;;21.48;60.07
61136;BME280;47021;51.340;12.432;2022-07-23T01:29:12;100186.03;;;21.42;60.85
61136;BME280;47021;51.340;12.432;2022-07-23T01:31:37;100190.75;;;21.47;60.73
61136;BME280;47021;51.340;12.432;2022-07-23T01:34:04;100181.28;;;21.31;61.32
61136;BME280;47021;51.340;12.432;2022-07-23T01:36:31;100173.81;;;21.20;61.43
61136;BME280;47021;51.340;12.432;2022-07-23T01:39:08;100173.88;;;21.27;61.20
61136;BME280;47021;51.340;12.432;2022-07-23T01:41:34;100171.84;;;21.29;61.33
61136;BME280;47021;51.340;12.432;2022-07-23T01:44:00;100183.09;;;21.31;61.09
61136;BME280;47021;51.340;12.432;2022-07-23T01:46:26;100179.78;;;21.56;60.43
61136;BME280;47021;51.340;12.432;2022-07-23T01:49:17;100185.78;;;21.71;60.31
61136;BME280;47021;51.340;12.432;2022-07-23T01:51:43;100175.69;;;21.54;60.43
61136;BME280;47021;51.340;12.432;2022-07-23T01:54:10;100178.31;;;21.47;60.88
61136;BME280;47021;51.340;12.432;2022-07-23T01:56:37;100169.84;;;21.37;61.33
61136;BME280;47021;51.340;12.432;2022-07-23T01:59:04;100178.78;;;21.30;61.89
61136;BME280;47021;51.340;12.432;2022-07-23T02:01:31;100166.59;;;21.83;59.69
61136;BME280;47021;51.340;12.432;2022-07-23T02:03:56;100173.03;;;21.95;59.59
61136;BME280;47021;51.340;12.432;2022-07-23T02:06:21;100166.09;;;22.00;59.29
61136;BME280;47021;51.340;12.432;2022-07-23T02:08:47;100164.59;;;21.91;59.37
61136;BME280;47021;51.340;12.432;2022-07-23T02:11:12;100165.31;;;21.65;60.07
61136;BME280;47021;51.340;12.432;2022-07-23T02:13:39;100162.75;;;21.85;59.81
61136;BME280;47021;51.340;12.432;2022-07-23T02:16:05;100158.91;;;21.94;59.10
61136;BME280;47021;51.340;12.432;2022-07-23T02:18:33;100156.97;;;21.75;60.12
61136;BME280;47021;51.340;12.432;2022-07-23T02:20:58;100160.19;;;22.05;59.18
61136;BME280;47021;51.340;12.432;2022-07-23T02:23:27;100167.94;;;21.59;60.02
61136;BME280;47021;51.340;12.432;2022-07-23T02:25:54;100165.34;;;21.72;59.75
61136;BME280;47021;51.340;12.432;2022-07-23T02:28:20;100181.34;;;21.44;60.67
61136;BME280;47021;51.340;12.432;2022-07-23T02:30:45;100198.00;;;21.32;60.18
61136;BME280;47021;51.340;12.432;2022-07-23T02:33:10;100203.44;;;21.17;60.37
61136;BME280;47021;51.340;12.432;2022-07-23T02:35:35;100201.78;;;20.95;61.03
61136;BME280;47021;51.340;12.432;2022-07-23T02:38:01;100195.72;;;21.01;61.40
61136;BME280;47021;51.340;12.432;2022-07-23T02:40:26;100200.59;;;21.19;60.52
61136;BME280;47021;51.340;12.432;2022-07-23T02:42:52;100209.72;;;21.09;61.26
61136;BME280;47021;51.340;12.432;2022-07-23T02:45:17;100201.63;;;21.18;61.39
61136;BME280;47021;51.340;12.432;2022-07-23T02:47:43;100200.50;;;20.84;61.39
61136;BME280;47021;51.340;12.432;2022-07-23T02:50:08;100206.38;;;21.29;60.13
61136;BME280;47021;51.340;12.432;2022-07-23T02:52:35;100207.59;;;21.26;59.60
61136;BME280;47021;51.340;12.432;2022-07-23T02:55:03;100197.59;;;20.79;61.15
61136;BME280;47021;51.340;12.432;2022-07-23T02:57:29;100199.66;;;20.84;61.07
61136;BME280;47021;51.340;12.432;2022-07-23T03:00:04;100200.81;;;20.75;61.27
61136;BME280;47021;51.340;12.432;2022-07-23T03:02:30;100197.53;;;20.73;61.59
61136;BME280;47021;51.340;12.432;2022-07-23T03:04:55;100199.34;;;20.72;61.59
61136;BME280;47021;51.340;12.432;2022-07-23T03:07:21;100203.66;;;20.94;60.70
61136;BME280;47021;51.340;12.432;2022-07-23T03:09:47;100197.69;;;20.65;62.52
61136;BME280;47021;51.340;12.432;2022-07-23T03:12:13;100189.88;;;20.84;62.04
61136;BME280;47021;51.340;12.432;2022-07-23T03:14:38;100184.88;;;20.75;62.36
61136;BME280;47021;51.340;12.432;2022-07-23T03:17:05;100190.09;;;20.62;62.29
61136;BME280;47021;51.340;12.432;2022-07-23T03:19:36;100187.63;;;20.60;62.69
61136;BME280;47021;51.340;12.432;2022-07-23T03:22:04;100183.78;;;20.90;62.04
61136;BME280;47021;51.340;12.432;2022-07-23T03:24:29;100174.94;;;20.56;62.95
61136;BME280;47021;51.340;12.432;2022-07-23T03:26:56;100182.47;;;20.80;62.14
61136;BME280;47021;51.340;12.432;2022-07-23T03:29:21;100171.19;;;20.71;62.60
61136;BME280;47021;51.340;12.432;2022-07-23T03:31:47;100159.88;;;20.90;61.76
61136;BME280;47021;51.340;12.432;2022-07-23T03:34:12;100163.22;;;20.71;62.13
61136;BME280;47021;51.340;12.432;2022-07-23T03:36:41;100159.31;;;20.67;61.96
61136;BME280;47021;51.340;12.432;2022-07-23T03:39:07;100155.81;;;20.88;61.68
61136;BME280;47021;51.340;12.432;2022-07-23T03:41:33;100145.09;;;20.54;62.55
61136;BME280;47021;51.340;12.432;2022-07-23T03:43:58;100143.09;;;20.56;62.94
61136;BME280;47021;51.340;12.432;2022-07-23T03:46:32;100156.78;;;20.38;63.34
61136;BME280;47021;51.340;12.432;2022-07-23T03:48:58;100147.53;;;20.49;63.11
61136;BME280;47021;51.340;12.432;2022-07-23T03:51:23;100150.97;;;20.70;62.33
61136;BME280;47021;51.340;12.432;2022-07-23T03:53:49;100147.78;;;20.81;62.02
61136;BME280;47021;51.340;12.432;2022-07-23T03:56:22;100153.75;;;20.62;62.01
61136;BME280;47021;51.340;12.432;2022-07-23T03:58:48;100157.34;;;20.55;62.58
61136;BME280;47021;51.340;12.432;2022-07-23T04:01:13;100164.53;;;20.82;61.94
61136;BME280;47021;51.340;12.432;2022-07-23T04:03:39;100162.06;;;20.80;61.65
61136;BME280;47021;51.340;12.432;2022-07-23T04:06:06;100170.88;;;20.60;62.42
61136;BME280;47021;51.340;12.432;2022-07-23T04:08:31;100189.47;;;20.60;62.21
61136;BME280;47021;51.340;12.432;2022-07-23T04:10:57;100199.25;;;20.59;61.97
61136;BME280;47021;51.340;12.432;2022-07-23T04:13:22;100236.50;;;20.93;61.27
61136;BME280;47021;51.340;12.432;2022-07-23T04:15:50;100271.25;;;20.56;61.98
61136;BME280;47021;51.340;12.432;2022-07-23T04:18:15;100312.97;;;20.62;62.52
61136;BME280;47021;51.340;12.432;2022-07-23T04:20:41;100336.81;;;20.41;63.11
61136;BME280;47021;51.340;12.432;2022-07-23T04:23:06;100326.63;;;20.45;62.00
61136;BME280;47021;51.340;12.432;2022-07-23T04:25:32;100330.94;;;20.46;61.85
61136;BME280;47021;51.340;12.432;2022-07-23T04:27:57;100312.38;;;20.02;63.24
61136;BME280;47021;51.340;12.432;2022-07-23T04:30:23;100308.72;;;20.47;61.56
61136;BME280;47021;51.340;12.432;2022-07-23T04:32:51;100295.50;;;20.03;62.63
61136;BME280;47021;51.340;12.432;2022-07-23T04:35:25;100294.53;;;20.10;62.25
61136;BME280;47021;51.340;12.432;2022-07-23T04:37:50;100296.03;;;20.42;61.31
61136;BME280;47021;51.340;12.432;2022-07-23T04:40:15;100273.06;;;20.34;61.18
61136;BME280;47021;51.340;12.432;2022-07-23T04:42:43;100250.47;;;20.38;61.49
61136;BME280;47021;51.340;12.432;2022-07-23T04:45:09;100245.84;;;20.47;61.03
61136;BME280;47021;51.340;12.432;2022-07-23T04:47:36;100242.03;;;21.13;58.83
61136;BME280;47021;51.340;12.432;2022-07-23T04:50:01;100215.69;;;20.69;61.90
61136;BME280;47021;51.340;12.432;2022-07-23T04:52:27;100192.69;;;20.76;62.92
61136;BME280;47021;51.340;12.432;2022-07-23T04:54:58;100164.03;;;20.99;63.81
61136;BME280;47021;51.340;12.432;2022-07-23T04:57:35;100127.69;;;20.23;67.18
61136;BME280;47021;51.340;12.432;2022-07-23T05:00:07;100116.69;;;19.91;67.72
61136;BME280;47021;51.340;12.432;2022-07-23T05:02:33;100126.44;;;18.96;71.77
61136;BME280;47021;51.340;12.432;2022-07-23T05:05:05;100140.34;;;19.27;70.38
61136;BME280;47021;51.340;12.432;2022-07-23T05:07:32;100146.13;;;19.45;70.49
61136;BME280;47021;51.340;12.432;2022-07-23T05:10:04;100175.25;;;19.45;70.15
61136;BME280;47021;51.340;12.432;2022-07-23T05:12:29;100196.88;;;19.49;69.24
61136;BME280;47021;51.340;12.432;2022-07-23T05:14:57;100226.13;;;19.55;69.68
61136;BME280;47021;51.340;12.432;2022-07-23T05:17:24;100238.81;;;19.89;68.86
61136;BME280;47021;51.340;12.432;2022-07-23T05:19:49;100257.78;;;19.34;70.95
61136;BME280;47021;51.340;12.432;2022-07-23T05:22:15;100245.03;;;19.67;69.30
61136;BME280;47021;51.340;12.432;2022-07-23T05:24:46;100216.81;;;19.08;71.70
61136;BME280;47021;51.340;12.432;2022-07-23T05:27:13;100190.44;;;18.99;73.09
61136;BME280;47021;51.340;12.432;2022-07-23T05:29:39;100183.91;;;18.87;73.36
61136;BME280;47021;51.340;12.432;2022-07-23T05:32:17;100178.75;;;18.71;73.86
61136;BME280;47021;51.340;12.432;2022-07-23T05:34:45;100193.81;;;18.71;73.31
61136;BME280;47021;51.340;12.432;2022-07-23T05:37:17;100213.72;;;19.04;73.44
61136;BME280;47021;51.340;12.432;2022-07-23T05:39:44;100217.63;;;18.71;74.56
61136;BME280;47021;51.340;12.432;2022-07-23T05:42:10;100204.50;;;18.77;74.42
61136;BME280;47021;51.340;12.432;2022-07-23T05:44:41;100208.81;;;19.30;72.77
61136;BME280;47021;51.340;12.432;2022-07-23T05:47:28;100219.28;;;19.09;73.11
61136;BME280;47021;51.340;12.432;2022-07-23T05:49:59;100227.44;;;18.85;74.30
61136;BME280;47021;51.340;12.432;2022-07-23T05:52:30;100240.63;;;19.08;72.75
61136;BME280;47021;51.340;12.432;2022-07-23T05:54:56;100265.19;;;19.16;72.85
61136;BME280;47021;51.340;12.432;2022-07-23T05:57:23;100266.72;;;19.33;72.09
61136;BME280;47021;51.340;12.432;2022-07-23T05:59:55;100268.97;;;19.73;71.83
61136;BME280;47021;51.340;12.432;2022-07-23T06:02:26;100257.66;;;19.28;71.72
61136;BME280;47021;51.340;12.432;2022-07-23T06:04:53;100234.00;;;19.26;72.13
61136;BME280;47021;51.340;12.432;2022-07-23T06:07:19;100208.50;;;19.62;71.11
61136;BME280;47021;51.340;12.432;2022-07-23T06:09:45;100229.97;;;19.82;70.80
61136;BME280;47021;51.340;12.432;2022-07-23T06:12:10;100227.41;;;19.89;69.71
61136;BME280;47021;51.340;12.432;2022-07-23T06:14:37;100222.72;;;19.91;69.12
61136;BME280;47021;51.340;12.432;2022-07-23T06:17:05;100210.59;;;20.17;69.50
61136;BME280;47021;51.340;12.432;2022-07-23T06:19:36;100221.13;;;20.11;69.39
61136;BME280;47021;51.340;12.432;2022-07-23T06:22:23;100226.25;;;20.12;68.66
61136;BME280;47021;51.340;12.432;2022-07-23T06:24:50;100220.09;;;20.41;68.00
61136;BME280;47021;51.340;12.432;2022-07-23T06:27:17;100218.03;;;20.22;69.58
61136;BME280;47021;51.340;12.432;2022-07-23T06:29:42;100212.16;;;20.26;69.86
61136;BME280;47021;51.340;12.432;2022-07-23T06:32:08;100214.28;;;20.02;69.16
61136;BME280;47021;51.340;12.432;2022-07-23T06:34:33;100226.72;;;20.16;68.82
61136;BME280;47021;51.340;12.432;2022-07-23T06:36:59;100227.28;;;20.68;66.83
61136;BME280;47021;51.340;12.432;2022-07-23T06:39:31;100222.94;;;20.82;68.22
61136;BME280;47021;51.340;12.432;2022-07-23T06:41:56;100234.84;;;21.69;66.71
61136;BME280;47021;51.340;12.432;2022-07-23T06:44:23;100225.44;;;21.39;65.80
61136;BME280;47021;51.340;12.432;2022-07-23T06:46:49;100226.44;;;21.31;65.65
61136;BME280;47021;51.340;12.432;2022-07-23T06:49:15;100225.13;;;21.21;66.31
61136;BME280;47021;51.340;12.432;2022-07-23T06:51:40;100222.28;;;21.22;66.50
61136;BME280;47021;51.340;12.432;2022-07-23T06:54:05;100224.81;;;21.37;66.92
61136;BME280;47021;51.340;12.432;2022-07-23T06:56:32;100230.94;;;21.65;65.44
61136;BME280;47021;51.340;12.432;2022-07-23T06:58:57;100231.50;;;21.88;65.91
61136;BME280;47021;51.340;12.432;2022-07-23T07:01:22;100231.91;;;21.92;65.10
61136;BME280;47021;51.340;12.432;2022-07-23T07:03:48;100243.41;;;21.37;64.77
61136;BME280;47021;51.340;12.432;2022-07-23T07:06:14;100242.13;;;21.26;65.17
61136;BME280;47021;51.340;12.432;2022-07-23T07:08:40;100237.44;;;20.86;67.29
61136;BME280;47021;51.340;12.432;2022-07-23T07:11:13;100249.03;;;21.21;66.21
61136;BME280;47021;51.340;12.432;2022-07-23T07:13:38;100257.00;;;21.83;64.47
61136;BME280;47021;51.340;12.432;2022-07-23T07:16:10;100248.97;;;21.76;65.88
61136;BME280;47021;51.340;12.432;2022-07-23T07:18:41;100251.63;;;22.04;64.32
61136;BME280;47021;51.340;12.432;2022-07-23T07:21:06;100258.31;;;21.59;66.02
61136;BME280;47021;51.340;12.432;2022-07-23T07:23:34;100261.88;;;22.07;64.91
61136;BME280;47021;51.340;12.432;2022-07-23T07:26:03;100263.06;;;22.04;65.41
61136;BME280;47021;51.340;12.432;2022-07-23T07:28:30;100261.41;;;21.14;67.76
61136;BME280;47021;51.340;12.432;2022-07-23T07:31:02;100262.25;;;21.42;67.80
61136;BME280;47021;51.340;12.432;2022-07-23T07:33:33;100266.88;;;21.05;68.00
61136;BME280;47021;51.340;12.432;2022-07-23T07:35:58;100262.75;;;20.82;69.07
61136;BME280;47021;51.340;12.432;2022-07-23T07:41:21;100256.53;;;21.72;65.69
61136;BME280;47021;51.340;12.432;2022-07-23T07:44:00;100264.22;;;21.27;67.36
61136;BME280;47021;51.340;12.432;2022-07-23T07:46:26;100267.06;;;21.87;65.74
61136;BME280;47021;51.340;12.432;2022-07-23T07:48:59;100267.88;;;22.28;64.07
61136;BME280;47021;51.340;12.432;2022-07-23T07:51:26;100274.88;;;21.89;64.96
61136;BME280;47021;51.340;12.432;2022-07-23T07:53:52;100276.72;;;21.33;66.61
61136;BME280;47021;51.340;12.432;2022-07-23T07:56:19;100276.94;;;21.65;65.14
61136;BME280;47021;51.340;12.432;2022-07-23T07:58:51;100285.25;;;20.65;69.14
61136;BME280;47021;51.340;12.432;2022-07-23T08:01:20;100278.28;;;21.55;65.93
61136;BME280;47021;51.340;12.432;2022-07-23T08:03:46;100279.44;;;21.18;67.28
61136;BME280;47021;51.340;12.432;2022-07-23T08:06:19;100282.75;;;21.82;64.82
61136;BME280;47021;51.340;12.432;2022-07-23T08:08:46;100278.81;;;21.44;66.10
61136;BME280;47021;51.340;12.432;2022-07-23T08:11:16;100272.00;;;21.90;64.91
61136;BME280;47021;51.340;12.432;2022-07-23T08:13:49;100275.94;;;21.73;65.57
61136;BME280;47021;51.340;12.432;2022-07-23T08:16:35;100275.28;;;22.39;63.57
61136;BME280;47021;51.340;12.432;2022-07-23T08:19:01;100276.03;;;22.81;62.79
61136;BME280;47021;51.340;12.432;2022-07-23T08:21:32;100266.44;;;23.39;61.20
61136;BME280;47021;51.340;12.432;2022-07-23T08:24:05;100270.28;;;23.75;59.84
61136;BME280;47021;51.340;12.432;2022-07-23T08:26:34;100280.13;;;22.83;62.18
61136;BME280;47021;51.340;12.432;2022-07-23T08:28:59;100278.06;;;22.85;61.82
61136;BME280;47021;51.340;12.432;2022-07-23T08:31:24;100281.41;;;23.59;59.90
61136;BME280;47021;51.340;12.432;2022-07-23T08:33:50;100287.75;;;23.12;61.21
61136;BME280;47021;51.340;12.432;2022-07-23T08:36:16;100292.91;;;23.53;59.83
61136;BME280;47021;51.340;12.432;2022-07-23T08:38:41;100291.84;;;23.02;61.31
61136;BME280;47021;51.340;12.432;2022-07-23T08:41:08;100285.50;;;23.29;60.51
61136;BME280;47021;51.340;12.432;2022-07-23T08:43:35;100299.22;;;23.06;60.90
61136;BME280;47021;51.340;12.432;2022-07-23T08:46:22;100302.97;;;22.52;62.44
61136;BME280;47021;51.340;12.432;2022-07-23T08:48:51;100314.13;;;22.88;60.79
61136;BME280;47021;51.340;12.432;2022-07-23T08:51:26;100308.13;;;22.60;61.09
61136;BME280;47021;51.340;12.432;2022-07-23T08:53:57;100308.41;;;22.71;61.46
61136;BME280;47021;51.340;12.432;2022-07-23T08:56:32;100302.91;;;23.25;61.03
61136;BME280;47021;51.340;12.432;2022-07-23T08:59:05;100303.94;;;23.24;60.57
61136;BME280;47021;51.340;12.432;2022-07-23T09:01:32;100308.47;;;23.17;60.65
61136;BME280;47021;51.340;12.432;2022-07-23T09:03:57;100300.44;;;23.82;59.08
61136;BME280;47021;51.340;12.432;2022-07-23T09:06:29;100309.31;;;23.37;60.30
61136;BME280;47021;51.340;12.432;2022-07-23T09:09:19;100318.13;;;23.38;60.43
61136;BME280;47021;51.340;12.432;2022-07-23T09:12:07;100324.69;;;23.42;60.09
61136;BME280;47021;51.340;12.432;2022-07-23T09:14:37;100327.53;;;22.54;61.28
61136;BME280;47021;51.340;12.432;2022-07-23T09:17:13;100328.28;;;22.95;60.74
61136;BME280;47021;51.340;12.432;2022-07-23T09:19:42;100338.84;;;22.62;61.72
61136;BME280;47021;51.340;12.432;2022-07-23T09:22:28;100345.50;;;21.98;62.99
61136;BME280;47021;51.340;12.432;2022-07-23T09:27:57;100354.94;;;21.79;64.05
61136;BME280;47021;51.340;12.432;2022-07-23T09:30:41;100349.78;;;21.50;64.72
61136;BME280;47021;51.340;12.432;2022-07-23T09:33:14;100361.03;;;22.01;64.05
61136;BME280;47021;51.340;12.432;2022-07-23T09:36:01;100360.06;;;22.49;61.75
61136;BME280;47021;51.340;12.432;2022-07-23T09:38:32;100356.13;;;22.32;62.29
61136;BME280;47021;51.340;12.432;2022-07-23T09:41:11;100364.38;;;22.43;61.63
61136;BME280;47021;51.340;12.432;2022-07-23T09:43:36;100364.56;;;21.80;62.75
61136;BME280;47021;51.340;12.432;2022-07-23T09:46:24;100365.19;;;21.82;63.35
61136;BME280;47021;51.340;12.432;2022-07-23T09:48:52;100359.75;;;22.24;62.92
61136;BME280;47021;51.340;12.432;2022-07-23T09:51:18;100353.84;;;22.70;60.88
61136;BME280;47021;51.340;12.432;2022-07-23T09:53:44;100343.28;;;23.29;58.95
61136;BME280;47021;51.340;12.432;2022-07-23T09:59:38;100357.41;;;22.49;61.51
61136;BME280;47021;51.340;12.432;2022-07-23T10:02:05;100335.44;;;22.75;60.71
61136;BME280;47021;51.340;12.432;2022-07-23T10:04:32;100351.50;;;23.07;59.36
61136;BME280;47021;51.340;12.432;2022-07-23T10:07:03;100358.81;;;22.99;59.46
61136;BME280;47021;51.340;12.432;2022-07-23T10:09:33;100373.03;;;22.59;60.41
61136;BME280;47021;51.340;12.432;2022-07-23T10:12:12;100369.53;;;22.17;62.21
61136;BME280;47021;51.340;12.432;2022-07-23T10:14:44;100370.44;;;22.31;61.83
61136;BME280;47021;51.340;12.432;2022-07-23T10:17:11;100371.91;;;22.40;61.96
61136;BME280;47021;51.340;12.432;2022-07-23T10:19:38;100379.09;;;22.87;60.07
61136;BME280;47021;51.340;12.432;2022-07-23T10:22:33;100380.78;;;23.01;59.27
61136;BME280;47021;51.340;12.432;2022-07-23T10:30:17;100378.03;;;22.75;59.38
61136;BME280;47021;51.340;12.432;2022-07-23T10:36:09;100386.03;;;22.81;58.79
61136;BME280;47021;51.340;12.432;2022-07-23T10:41:38;100378.28;;;24.50;54.13
61136;BME280;47021;51.340;12.432;2022-07-23T10:46:59;100381.09;;;23.58;54.97
61136;BME280;47021;51.340;12.432;2022-07-23T10:49:31;100372.25;;;23.64;55.57
61136;BME280;47021;51.340;12.432;2022-07-23T10:52:18;100367.28;;;24.71;53.45
61136;BME280;47021;51.340;12.432;2022-07-23T10:54:47;100372.97;;;24.37;53.61
61136;BME280;47021;51.340;12.432;2022-07-23T10:57:15;100364.22;;;24.17;54.82
61136;BME280;47021;51.340;12.432;2022-07-23T11:00:12;100359.00;;;25.55;52.34
61136;BME280;47021;51.340;12.432;2022-07-23T11:02:39;100379.19;;;24.24;54.44
61136;BME280;47021;51.340;12.432;2022-07-23T11:05:14;100376.94;;;23.95;54.74
61136;BME280;47021;51.340;12.432;2022-07-23T11:10:53;100380.84;;;23.99;54.42
61136;BME280;47021;51.340;12.432;2022-07-23T11:13:32;100382.88;;;24.23;53.74
61136;BME280;47021;51.340;12.432;2022-07-23T11:32:31;100374.47;;;24.20;56.84
61136;BME280;47021;51.340;12.432;2022-07-23T11:34:57;100374.66;;;24.89;55.01
61136;BME280;47021;51.340;12.432;2022-07-23T11:37:38;100365.44;;;24.72;55.72
61136;BME280;47021;51.340;12.432;2022-07-23T11:40:07;100370.38;;;24.81;54.11
61136;BME280;47021;51.340;12.432;2022-07-23T11:42:34;100365.59;;;24.90;53.68
61136;BME280;47021;51.340;12.432;2022-07-23T11:45:00;100367.75;;;25.06;52.94
61136;BME280;47021;51.340;12.432;2022-07-23T11:47:27;100360.19;;;24.96;52.98
61136;BME280;47021;51.340;12.432;2022-07-23T11:49:57;100360.56;;;25.06;52.83
61136;BME280;47021;51.340;12.432;2022-07-23T11:52:25;100356.97;;;25.75;51.34
61136;BME280;47021;51.340;12.432;2022-07-23T11:54:54;100359.06;;;25.73;51.43
61136;BME280;47021;51.340;12.432;2022-07-23T11:57:24;100359.81;;;25.24;52.39
61136;BME280;47021;51.340;12.432;2022-07-23T11:59:53;100356.38;;;26.34;49.79
61136;BME280;47021;51.340;12.432;2022-07-23T12:02:20;100349.66;;;27.50;47.60
61136;BME280;47021;51.340;12.432;2022-07-23T12:04:51;100352.34;;;27.32;46.88
61136;BME280;47021;51.340;12.432;2022-07-23T12:10:14;100354.56;;;26.64;48.82
61136;BME280;47021;51.340;12.432;2022-07-23T12:12:50;100357.84;;;26.96;48.02
61136;BME280;47021;51.340;12.432;2022-07-23T12:15:17;100351.72;;;26.95;47.75
61136;BME280;47021;51.340;12.432;2022-07-23T12:17:46;100365.13;;;26.59;48.39
61136;BME280;47021;51.340;12.432;2022-07-23T12:20:19;100357.44;;;25.90;49.77
61136;BME280;47021;51.340;12.432;2022-07-23T12:22:49;100355.72;;;26.75;47.96
61136;BME280;47021;51.340;12.432;2022-07-23T12:25:17;100352.63;;;27.01;47.79
61136;BME280;47021;51.340;12.432;2022-07-23T12:27:44;100361.47;;;26.90;47.93
61136;BME280;47021;51.340;12.432;2022-07-23T12:30:24;100362.41;;;27.25;46.89
61136;BME280;47021;51.340;12.432;2022-07-23T12:32:53;100358.56;;;26.01;49.48
61136;BME280;47021;51.340;12.432;2022-07-23T12:35:20;100360.25;;;25.95;49.03
61136;BME280;47021;51.340;12.432;2022-07-23T12:37:50;100345.19;;;27.03;48.58
61136;BME280;47021;51.340;12.432;2022-07-23T12:42:57;100344.25;;;28.20;45.76
61136;BME280;47021;51.340;12.432;2022-07-23T12:45:23;100354.66;;;28.28;45.44
61136;BME280;47021;51.340;12.432;2022-07-23T12:48:04;100353.06;;;25.96;50.12
61136;BME280;47021;51.340;12.432;2022-07-23T12:50:56;100346.41;;;26.89;48.26
61136;BME280;47021;51.340;12.432;2022-07-23T12:56:01;100358.19;;;26.22;49.26
61136;BME280;47021;51.340;12.432;2022-07-23T12:58:43;100347.41;;;27.06;48.25
61136;BME280;47021;51.340;12.432;2022-07-23T13:06:34;100338.06;;;27.38;47.81
61136;BME280;47021;51.340;12.432;2022-07-23T13:09:03;100343.78;;;27.42;46.52
61136;BME280;47021;51.340;12.432;2022-07-23T13:11:30;100331.09;;;26.12;49.14
61136;BME280;47021;51.340;12.432;2022-07-23T13:13:59;100325.06;;;26.16;49.52
61136;BME280;47021;51.340;12.432;2022-07-23T13:16:32;100320.72;;;27.64;46.47
61136;BME280;47021;51.340;12.432;2022-07-23T13:18:59;100333.22;;;26.57;46.41
61136;BME280;47021;51.340;12.432;2022-07-23T13:21:27;100329.66;;;26.27;47.01
61136;BME280;47021;51.340;12.432;2022-07-23T13:23:54;100322.97;;;26.36;46.53
61136;BME280;47021;51.340;12.432;2022-07-23T13:26:23;100318.88;;;26.34;46.54
61136;BME280;47021;51.340;12.432;2022-07-23T13:28:49;100307.34;;;27.22;45.07
61136;BME280;47021;51.340;12.432;2022-07-23T13:31:14;100307.16;;;27.93;43.53
61136;BME280;47021;51.340;12.432;2022-07-23T13:33:40;100302.25;;;27.56;43.84
61136;BME280;47021;51.340;12.432;2022-07-23T13:36:05;100307.38;;;27.80;44.66
61136;BME280;47021;51.340;12.432;2022-07-23T13:38:30;100314.16;;;27.83;44.05
61136;BME280;47021;51.340;12.432;2022-07-23T13:40:56;100306.47;;;27.63;43.97
61136;BME280;47021;51.340;12.432;2022-07-23T13:43:24;100306.72;;;27.50;44.56
61136;BME280;47021;51.340;12.432;2022-07-23T13:45:52;100304.81;;;27.39;44.63
61136;BME280;47021;51.340;12.432;2022-07-23T13:48:19;100304.59;;;27.75;43.54